Time;durP1;ratioP1;P1;durP2;ratioP2;P2;SDS_P1;SDS_P2;PMS_P1;PMS_P2;Temp;Humidity;BMP_temperature;BMP_pressure;BME280_temperature;BME280_humidity;BME280_pressure;Samples;Min_cycle;Max_cycle;Signal;HPM_P1;HPM_P2
2023/04/26 00:00:07;;;;;;;18.60;10.60;;;;;;;10.50;100.00;99630.64;110399;1241;61016;-69
2023/04/26 00:02:58;;;;;;;17.90;10.30;;;;;;;10.49;100.00;99634.36;110316;1234;76320;-68
2023/04/26 00:05:28;;;;;;;18.90;11.30;;;;;;;10.47;100.00;99633.81;110262;1236;72033;-69
2023/04/26 00:07:57;;;;;;;16.90;10.70;;;;;;;10.47;100.00;99630.52;110281;1233;59914;-68
2023/04/26 00:10:26;;;;;;;21.00;11.50;;;;;;;10.49;100.00;99628.08;110279;1235;73795;-69
2023/04/26 00:12:54;;;;;;;18.40;11.80;;;;;;;10.50;100.00;99628.90;110175;1238;58320;-69
2023/04/26 00:15:23;;;;;;;19.60;11.60;;;;;;;10.52;100.00;99635.80;110189;1238;58142;-70
2023/04/26 00:17:52;;;;;;;17.70;11.60;;;;;;;10.55;100.00;99633.09;110287;1234;63804;-69
2023/04/26 00:20:21;;;;;;;20.00;12.10;;;;;;;10.60;100.00;99637.52;110245;1235;72162;-68
2023/04/26 00:22:49;;;;;;;17.80;11.70;;;;;;;10.62;100.00;99639.42;110191;1234;70879;-69
2023/04/26 00:25:18;;;;;;;17.60;11.80;;;;;;;10.66;100.00;99641.23;110276;1236;63655;-69
2023/04/26 00:27:47;;;;;;;17.90;11.60;;;;;;;10.66;100.00;99645.02;110258;1235;57782;-70
2023/04/26 00:30:15;;;;;;;17.30;11.60;;;;;;;10.69;100.00;99643.70;110366;1236;60453;-69
2023/04/26 00:32:45;;;;;;;18.60;11.90;;;;;;;10.70;100.00;99643.05;110420;1236;65304;-69
2023/04/26 00:35:14;;;;;;;19.60;12.60;;;;;;;10.74;100.00;99641.52;110323;1235;61873;-70
2023/04/26 00:37:44;;;;;;;18.30;10.90;;;;;;;10.76;100.00;99642.86;110402;1235;68780;-68
2023/04/26 00:40:15;;;;;;;19.40;11.30;;;;;;;10.81;100.00;99643.83;110269;1234;73462;-68
2023/04/26 00:42:43;;;;;;;21.20;11.20;;;;;;;10.85;100.00;99643.84;110302;1239;57789;-68
2023/04/26 00:45:12;;;;;;;19.10;12.00;;;;;;;10.92;100.00;99645.78;110314;1235;57744;-68
2023/04/26 00:47:41;;;;;;;20.10;12.60;;;;;;;10.95;100.00;99642.92;110386;1234;63848;-70
2023/04/26 00:50:10;;;;;;;18.70;12.00;;;;;;;10.95;100.00;99643.30;110345;1235;71118;-70
2023/04/26 00:52:38;;;;;;;20.80;11.80;;;;;;;11.00;100.00;99636.91;110426;1235;69994;-70
2023/04/26 00:55:08;;;;;;;20.00;12.30;;;;;;;11.06;100.00;99637.43;110445;1235;63627;-70
2023/04/26 00:57:39;;;;;;;22.50;13.00;;;;;;;11.08;100.00;99637.54;110380;1236;61190;-70
2023/04/26 01:00:08;;;;;;;17.70;12.40;;;;;;;11.14;100.00;99639.48;110330;1235;61053;-68
2023/04/26 01:02:37;;;;;;;18.20;12.20;;;;;;;11.13;100.00;99639.19;110289;1235;64275;-69
2023/04/26 01:05:08;;;;;;;21.90;12.20;;;;;;;11.12;100.00;99640.45;110309;1235;72202;-70
2023/04/26 01:07:40;;;;;;;21.30;12.80;;;;;;;11.16;100.00;99634.73;110313;1235;60407;-70
2023/04/26 01:10:09;;;;;;;18.50;12.70;;;;;;;11.20;100.00;99632.13;110357;1234;63394;-69
2023/04/26 01:12:39;;;;;;;20.30;12.30;;;;;;;11.18;100.00;99625.66;110375;1237;63337;-69
2023/04/26 01:15:10;;;;;;;22.00;13.70;;;;;;;11.24;100.00;99626.89;110333;1235;58281;-70
2023/04/26 01:17:39;;;;;;;17.40;12.20;;;;;;;11.29;100.00;99627.63;110272;1234;74266;-69
2023/04/26 01:20:09;;;;;;;20.90;12.30;;;;;;;11.28;100.00;99626.84;110323;1237;72532;-69
2023/04/26 01:22:38;;;;;;;20.90;12.40;;;;;;;11.30;100.00;99622.61;110259;1235;70835;-69
2023/04/26 01:25:10;;;;;;;19.30;12.70;;;;;;;11.34;100.00;99619.77;110318;1234;72622;-70
2023/04/26 01:27:40;;;;;;;22.80;13.00;;;;;;;11.32;100.00;99617.20;110108;1238;58603;-70
2023/04/26 01:30:09;;;;;;;20.90;12.50;;;;;;;11.37;100.00;99615.74;110349;1235;58288;-69
2023/04/26 01:32:38;;;;;;;22.30;11.70;;;;;;;11.29;100.00;99613.44;110395;1235;63749;-70
2023/04/26 01:35:07;;;;;;;23.40;13.10;;;;;;;11.31;100.00;99614.87;110450;1235;60866;-69
2023/04/26 01:37:36;;;;;;;23.40;13.60;;;;;;;11.30;100.00;99612.87;110337;1234;59032;-69
2023/04/26 01:40:06;;;;;;;23.40;13.00;;;;;;;11.37;100.00;99616.03;110338;1235;63231;-69
2023/04/26 01:42:37;;;;;;;19.20;13.10;;;;;;;11.40;100.00;99615.27;110442;1236;58266;-69
2023/04/26 01:45:06;;;;;;;19.70;12.30;;;;;;;11.45;100.00;99616.06;110354;1235;58328;-69
2023/04/26 01:48:19;;;;;;;21.90;13.30;;;;;;;11.49;100.00;99613.41;110281;1235;62929;-68
2023/04/26 01:50:48;;;;;;;19.30;13.10;;;;;;;11.52;100.00;99606.30;110315;1235;71461;-69
2023/04/26 01:53:16;;;;;;;21.20;13.50;;;;;;;11.48;100.00;99604.48;110418;1235;60586;-68
2023/04/26 01:55:45;;;;;;;19.80;13.10;;;;;;;11.45;100.00;99606.30;110343;1235;62420;-68
2023/04/26 01:58:14;;;;;;;24.40;14.70;;;;;;;11.43;100.00;99606.24;110429;1235;62655;-68
2023/04/26 02:00:42;;;;;;;28.40;14.20;;;;;;;11.38;100.00;99606.20;110332;1235;59234;-69
2023/04/26 02:03:11;;;;;;;22.40;14.00;;;;;;;11.32;100.00;99604.63;110330;1235;63724;-68
2023/04/26 02:05:40;;;;;;;22.00;14.20;;;;;;;11.34;100.00;99599.27;110266;1235;68847;-69
2023/04/26 02:08:09;;;;;;;27.80;14.10;;;;;;;11.34;100.00;99599.55;110205;1237;71452;-69
2023/04/26 02:10:38;;;;;;;25.20;15.20;;;;;;;11.32;100.00;99599.09;110293;1233;74187;-70
2023/04/26 02:13:07;;;;;;;29.20;14.70;;;;;;;11.31;100.00;99593.61;110159;1238;62724;-69
2023/04/26 02:15:36;;;;;;;31.10;15.70;;;;;;;11.33;100.00;99599.36;110456;1234;57623;-68
2023/04/26 02:18:05;;;;;;;22.80;15.30;;;;;;;11.31;100.00;99596.77;110352;1235;74340;-68
2023/04/26 02:20:35;;;;;;;28.10;15.50;;;;;;;11.29;100.00;99596.27;110400;1234;62015;-68
2023/04/26 02:23:03;;;;;;;26.20;15.80;;;;;;;11.28;100.00;99598.23;110381;1235;71087;-69
2023/04/26 02:25:32;;;;;;;29.00;16.00;;;;;;;11.25;100.00;99596.09;110358;1234;62990;-69
2023/04/26 02:28:01;;;;;;;29.90;16.20;;;;;;;11.26;100.00;99594.61;110443;1235;58254;-68
2023/04/26 02:30:30;;;;;;;27.30;17.30;;;;;;;11.29;100.00;99594.67;110396;1235;57747;-68
2023/04/26 02:32:59;;;;;;;28.60;16.30;;;;;;;11.32;100.00;99595.77;110237;1235;74214;-69
2023/04/26 02:35:29;;;;;;;27.90;16.10;;;;;;;11.35;100.00;99595.48;110498;1235;62358;-71
2023/04/26 02:37:58;;;;;;;25.40;15.90;;;;;;;11.35;100.00;99598.27;110419;1235;70432;-68
2023/04/26 02:40:28;;;;;;;30.00;17.00;;;;;;;11.36;100.00;99601.16;110340;1235;64084;-68
2023/04/26 02:42:57;;;;;;;27.10;16.30;;;;;;;11.37;100.00;99601.00;110392;1238;57775;-68
2023/04/26 02:45:26;;;;;;;27.70;16.40;;;;;;;11.42;100.00;99599.75;110391;1234;57669;-69
2023/04/26 02:47:55;;;;;;;26.70;17.10;;;;;;;11.44;100.00;99602.00;110397;1235;74399;-69
2023/04/26 02:50:23;;;;;;;26.50;16.70;;;;;;;11.43;100.00;99605.53;110310;1235;71950;-69
2023/04/26 02:52:52;;;;;;;26.00;16.60;;;;;;;11.48;100.00;99611.08;110337;1235;61983;-68
2023/04/26 02:55:21;;;;;;;31.30;17.80;;;;;;;11.48;100.00;99608.21;110386;1234;63685;-69
2023/04/26 02:57:50;;;;;;;28.60;17.10;;;;;;;11.51;100.00;99612.14;110390;1236;62739;-69
2023/04/26 03:00:19;;;;;;;30.10;17.20;;;;;;;11.51;100.00;99612.00;110370;1235;60944;-70
2023/04/26 03:02:47;;;;;;;28.80;17.90;;;;;;;11.46;100.00;99619.45;110242;1234;73416;-70
2023/04/26 03:05:18;;;;;;;27.10;17.10;;;;;;;11.47;100.00;99621.40;110396;1234;71041;-69
2023/04/26 03:07:47;;;;;;;28.00;17.50;;;;;;;11.53;100.00;99625.20;110308;1235;60125;-68
2023/04/26 03:10:16;;;;;;;31.00;17.40;;;;;;;11.58;100.00;99621.98;110321;1235;63220;-68
2023/04/26 03:12:45;;;;;;;29.50;16.50;;;;;;;11.60;100.00;99622.48;110288;1237;58432;-69
2023/04/26 03:15:15;;;;;;;30.40;17.70;;;;;;;11.60;100.00;99623.30;110395;1235;57800;-70
2023/04/26 03:17:44;;;;;;;30.70;18.60;;;;;;;11.60;100.00;99628.70;110214;1234;72838;-70
2023/04/26 03:20:14;;;;;;;30.50;18.00;;;;;;;11.63;100.00;99627.23;110150;1234;61380;-70
2023/04/26 03:22:42;;;;;;;28.40;17.90;;;;;;;11.68;100.00;99632.54;110055;1235;69702;-69
2023/04/26 03:25:14;;;;;;;28.80;17.90;;;;;;;11.72;100.00;99638.46;110362;1234;74202;-70
2023/04/26 03:27:43;;;;;;;26.80;17.40;;;;;;;11.75;100.00;99643.58;110290;1234;58101;-70
2023/04/26 03:30:13;;;;;;;16.70;11.90;;;;;;;11.73;100.00;99666.73;110359;1234;60278;-69
2023/04/26 03:32:42;;;;;;;9.40;5.00;;;;;;;11.49;100.00;99681.85;110335;1234;63422;-69
2023/04/26 03:35:11;;;;;;;5.00;3.50;;;;;;;10.96;100.00;99678.76;110450;1235;61658;-70
2023/04/26 03:37:40;;;;;;;4.50;3.40;;;;;;;10.58;100.00;99681.26;110444;1235;59816;-70
2023/04/26 03:40:12;;;;;;;3.90;3.10;;;;;;;10.23;100.00;99689.77;110338;1234;62501;-70
2023/04/26 03:42:40;;;;;;;4.30;3.20;;;;;;;9.88;100.00;99694.82;110406;1235;62940;-69
2023/04/26 03:45:10;;;;;;;3.40;2.70;;;;;;;9.74;100.00;99697.22;110306;1234;58321;-71
2023/04/26 03:47:38;;;;;;;3.50;3.00;;;;;;;9.53;100.00;99701.08;110410;1234;63888;-69
2023/04/26 03:50:07;;;;;;;3.00;2.30;;;;;;;9.44;100.00;99706.99;110345;1238;60759;-68
2023/04/26 03:52:36;;;;;;;3.00;2.20;;;;;;;9.40;100.00;99711.05;110362;1233;59976;-69
2023/04/26 03:55:08;;;;;;;2.00;1.40;;;;;;;9.26;100.00;99716.31;110309;1235;62493;-69
2023/04/26 03:57:37;;;;;;;2.50;1.90;;;;;;;9.16;100.00;99722.02;110289;1238;58264;-68
2023/04/26 04:00:10;;;;;;;3.40;1.70;;;;;;;9.05;100.00;99728.50;110318;1235;61204;-70
2023/04/26 04:02:43;;;;;;;2.20;1.90;;;;;;;8.87;100.00;99730.34;110293;1236;64166;-69
2023/04/26 04:05:14;;;;;;;2.40;1.50;;;;;;;8.84;100.00;99726.95;110049;1234;62579;-68
2023/04/26 04:07:43;;;;;;;2.10;1.60;;;;;;;8.86;100.00;99736.86;110284;1234;69745;-71
2023/04/26 04:10:12;;;;;;;1.80;1.60;;;;;;;8.74;100.00;99742.34;110238;1234;63986;-69
2023/04/26 04:12:42;;;;;;;3.00;1.90;;;;;;;8.75;100.00;99746.77;110056;1238;62502;-70
2023/04/26 04:15:11;;;;;;;2.20;1.40;;;;;;;8.66;100.00;99759.45;110149;1234;61671;-71
2023/04/26 04:17:44;;;;;;;2.40;1.80;;;;;;;8.75;100.00;99764.06;110092;1235;64179;-71
2023/04/26 04:20:13;;;;;;;2.60;1.90;;;;;;;8.67;100.00;99769.56;110182;1234;61629;-71
2023/04/26 04:22:42;;;;;;;3.50;2.10;;;;;;;8.67;100.00;99773.90;110188;1235;69840;-72
2023/04/26 04:25:12;;;;;;;4.40;1.90;;;;;;;8.70;100.00;99775.94;110223;1234;64040;-78
2023/04/26 04:27:42;;;;;;;3.20;2.40;;;;;;;8.74;100.00;99781.70;110267;1238;57839;-73
2023/04/26 04:30:11;;;;;;;2.50;2.00;;;;;;;8.72;100.00;99788.57;110066;1235;61365;-74
2023/04/26 04:32:43;;;;;;;3.50;1.90;;;;;;;8.68;100.00;99799.89;110239;1238;63481;-73
2023/04/26 04:35:12;;;;;;;2.30;1.70;;;;;;;8.50;100.00;99807.86;110240;1235;72406;-74
2023/04/26 04:37:42;;;;;;;1.70;1.10;;;;;;;8.56;100.00;99814.41;110259;1234;69879;-73
2023/04/26 04:40:12;;;;;;;1.40;1.00;;;;;;;8.49;100.00;99821.70;110219;1234;75635;-72
2023/04/26 04:42:43;;;;;;;1.00;0.80;;;;;;;8.44;100.00;99828.48;110260;1238;63385;-73
2023/04/26 04:45:13;;;;;;;1.40;0.90;;;;;;;8.35;100.00;99824.65;110251;1235;61675;-72
2023/04/26 04:47:44;;;;;;;1.70;1.10;;;;;;;8.33;100.00;99825.83;110406;1235;64862;-72
2023/04/26 04:50:13;;;;;;;4.10;1.10;;;;;;;8.29;100.00;99832.25;110323;1234;71395;-73
2023/04/26 04:52:43;;;;;;;3.10;1.20;;;;;;;8.16;100.00;99829.91;110230;1235;70832;-73
2023/04/26 04:55:12;;;;;;;3.20;1.80;;;;;;;8.13;100.00;99831.14;110204;1235;73498;-74
2023/04/26 04:57:41;;;;;;;2.50;1.50;;;;;;;8.05;100.00;99831.47;110291;1238;58261;-73
2023/04/26 05:00:12;;;;;;;3.50;1.40;;;;;;;8.07;100.00;99832.14;110257;1235;59867;-73
2023/04/26 05:02:46;;;;;;;3.20;2.80;;;;;;;8.14;100.00;99837.70;110166;1234;74993;-74
2023/04/26 05:05:16;;;;;;;3.10;1.80;;;;;;;8.09;100.00;99838.09;110251;1235;71784;-74
2023/04/26 05:07:45;;;;;;;2.50;1.70;;;;;;;8.09;100.00;99837.71;110244;1235;70847;-73
2023/04/26 05:10:14;;;;;;;2.80;1.60;;;;;;;8.06;100.00;99842.95;110354;1236;74269;-73
2023/04/26 05:12:43;;;;;;;2.50;1.60;;;;;;;8.05;100.00;99840.29;110360;1235;63408;-72
2023/04/26 05:15:12;;;;;;;3.30;1.50;;;;;;;8.05;100.00;99839.73;110342;1234;61798;-72
2023/04/26 05:17:41;;;;;;;6.00;1.90;;;;;;;8.03;100.00;99840.79;110386;1233;72988;-72
2023/04/26 05:20:18;;;;;;;4.80;2.00;;;;;;;7.99;100.00;99840.55;110356;1234;62081;-72
2023/04/26 05:22:47;;;;;;;3.80;2.10;;;;;;;8.00;100.00;99842.18;110288;1233;59296;-73
2023/04/26 05:25:16;;;;;;;6.30;3.00;;;;;;;8.05;100.00;99842.39;110293;1237;62478;-73
2023/04/26 05:27:48;;;;;;;4.40;2.80;;;;;;;8.06;100.00;99842.98;110203;1238;58307;-73
2023/04/26 05:30:35;;;;;;;4.20;2.30;;;;;;;8.05;100.00;99845.33;110165;1235;60384;-74
2023/04/26 05:33:27;;;;;;;2.50;1.40;;;;;;;8.07;100.00;99846.73;110162;1236;74093;-74
2023/04/26 05:36:05;;;;;;;2.10;1.20;;;;;;;8.07;100.00;99853.63;110227;1237;61579;-74
2023/04/26 05:38:36;;;;;;;3.20;1.70;;;;;;;8.13;100.00;99852.72;110185;1235;60920;-74
2023/04/26 05:41:05;;;;;;;1.80;1.40;;;;;;;8.17;100.00;99854.13;110117;1235;73681;-74
2023/04/26 05:43:34;;;;;;;5.20;1.90;;;;;;;8.16;100.00;99863.42;109990;1239;57747;-74
2023/04/26 05:46:03;;;;;;;3.20;1.40;;;;;;;8.11;100.00;99866.01;110162;1236;58215;-74
2023/04/26 05:48:32;;;;;;;3.20;1.40;;;;;;;8.10;100.00;99869.55;110293;1235;62994;-74
2023/04/26 05:51:01;;;;;;;2.80;1.80;;;;;;;8.10;100.00;99874.77;110267;1235;72270;-74
2023/04/26 05:53:30;;;;;;;2.60;1.80;;;;;;;8.07;100.00;99859.70;110121;1234;69985;-74
2023/04/26 05:55:59;;;;;;;7.60;3.70;;;;;;;8.04;100.00;99861.31;110137;1235;63562;-74
2023/04/26 05:58:28;;;;;;;5.30;3.20;;;;;;;8.12;100.00;99878.25;110073;1238;61442;-74
2023/04/26 06:00:57;;;;;;;2.00;1.60;;;;;;;8.12;100.00;99875.51;110140;1237;57847;-74
2023/04/26 06:03:26;;;;;;;3.40;1.80;;;;;;;8.17;100.00;99881.91;110098;1238;63708;-73
2023/04/26 06:05:55;;;;;;;2.50;1.20;;;;;;;8.12;100.00;99885.33;110218;1238;61802;-74
2023/04/26 06:08:24;;;;;;;5.60;3.20;;;;;;;8.17;100.00;99885.48;110086;1239;67262;-74
2023/04/26 06:10:54;;;;;;;3.30;1.10;;;;;;;8.23;100.00;99885.23;110351;1237;73974;-74
2023/04/26 06:13:22;;;;;;;3.50;1.50;;;;;;;8.31;100.00;99888.10;110274;1238;61584;-73
2023/04/26 06:15:52;;;;;;;19.10;16.40;;;;;;;8.32;100.00;99891.52;110269;1237;58036;-74
2023/04/26 06:18:21;;;;;;;4.10;2.10;;;;;;;8.31;100.00;99895.02;110252;1234;72576;-73
2023/04/26 06:20:51;;;;;;;3.20;1.70;;;;;;;8.33;100.00;99897.13;110304;1238;61664;-74
2023/04/26 06:23:19;;;;;;;2.50;1.70;;;;;;;8.32;100.00;99900.98;110310;1234;70515;-74
2023/04/26 06:25:48;;;;;;;2.40;1.60;;;;;;;8.39;100.00;99897.39;110296;1238;63701;-74
2023/04/26 06:28:17;;;;;;;1.80;1.30;;;;;;;8.45;100.00;99899.91;110182;1238;58236;-73
2023/04/26 06:30:46;;;;;;;5.30;1.60;;;;;;;8.48;100.00;99908.16;110390;1238;61461;-74
2023/04/26 06:33:15;;;;;;;2.80;1.70;;;;;;;8.49;100.00;99911.88;110338;1238;66307;-73
2023/04/26 06:35:45;;;;;;;3.30;2.20;;;;;;;8.43;100.00;99910.13;110374;1238;60888;-73
2023/04/26 06:38:14;;;;;;;3.10;1.80;;;;;;;8.53;100.00;99913.69;110112;1235;70526;-74
2023/04/26 06:40:43;;;;;;;2.50;1.50;;;;;;;8.54;100.00;99919.72;110273;1238;62840;-73
2023/04/26 06:43:12;;;;;;;3.10;1.30;;;;;;;8.62;100.00;99933.11;110237;1238;58334;-74
2023/04/26 06:45:59;;;;;;;1.60;1.30;;;;;;;8.59;100.00;99934.24;110343;1235;61854;-74
2023/04/26 06:48:27;;;;;;;1.90;1.20;;;;;;;8.58;100.00;99936.77;110279;1235;75108;-74
2023/04/26 06:50:56;;;;;;;2.10;1.40;;;;;;;8.57;100.00;99943.42;110351;1238;61341;-73
2023/04/26 06:53:25;;;;;;;2.20;1.40;;;;;;;8.55;100.00;99942.84;110357;1235;69207;-73
2023/04/26 06:55:56;;;;;;;2.90;1.60;;;;;;;8.58;100.00;99948.55;110296;1235;73511;-75
2023/04/26 06:58:25;;;;;;;2.90;1.80;;;;;;;8.55;100.00;99945.47;110345;1237;62471;-73
2023/04/26 07:00:53;;;;;;;3.20;1.60;;;;;;;8.62;100.00;99957.42;110345;1235;60904;-74
2023/04/26 07:03:22;;;;;;;2.20;2.00;;;;;;;8.61;100.00;99959.42;110391;1235;64493;-74
2023/04/26 07:05:51;;;;;;;3.00;1.40;;;;;;;8.60;100.00;99959.36;110387;1235;60626;-74
2023/04/26 07:08:20;;;;;;;1.90;1.20;;;;;;;8.63;100.00;99964.66;110337;1235;59797;-74
2023/04/26 07:10:49;;;;;;;1.80;1.10;;;;;;;8.64;100.00;99967.71;110441;1235;73299;-74
2023/04/26 07:13:17;;;;;;;1.40;1.20;;;;;;;8.62;100.00;99970.83;110279;1239;62535;-72
2023/04/26 07:15:46;;;;;;;1.30;1.10;;;;;;;8.50;100.00;99969.60;110432;1235;57733;-73
2023/04/26 07:18:15;;;;;;;2.00;1.40;;;;;;;8.56;100.00;99975.58;110434;1235;63802;-74
2023/04/26 07:20:44;;;;;;;2.20;1.30;;;;;;;8.50;100.00;99976.09;110416;1235;72069;-74
2023/04/26 07:23:12;;;;;;;2.80;1.30;;;;;;;8.43;100.00;99978.84;110431;1235;61166;-73
2023/04/26 07:25:41;;;;;;;2.70;1.50;;;;;;;8.44;100.00;99978.73;110291;1235;63743;-74
2023/04/26 07:28:10;;;;;;;1.80;1.40;;;;;;;8.35;100.00;99984.24;110420;1235;58483;-74
2023/04/26 07:30:39;;;;;;;1.80;1.40;;;;;;;8.34;100.00;99983.66;110188;1235;61267;-74
2023/04/26 07:33:08;;;;;;;1.40;1.00;;;;;;;8.29;100.00;99990.10;110425;1233;73883;-74
2023/04/26 07:35:37;;;;;;;1.80;1.40;;;;;;;8.27;100.00;99993.34;110446;1234;62142;-73
2023/04/26 07:38:06;;;;;;;2.10;1.40;;;;;;;8.24;100.00;100002.05;110437;1233;70458;-73
2023/04/26 07:40:35;;;;;;;2.30;1.50;;;;;;;8.27;100.00;100007.59;110402;1236;63596;-73
2023/04/26 07:43:04;;;;;;;2.00;1.50;;;;;;;8.27;100.00;100004.45;110393;1236;57761;-74
2023/04/26 07:45:33;;;;;;;2.30;1.40;;;;;;;8.24;100.00;100007.60;110474;1234;61205;-74
2023/04/26 07:48:01;;;;;;;1.30;1.20;;;;;;;8.11;100.00;100006.14;110395;1235;74238;-73
2023/04/26 07:50:30;;;;;;;2.50;1.80;;;;;;;8.13;100.00;100008.10;110492;1235;62016;-73
2023/04/26 07:52:59;;;;;;;2.30;1.90;;;;;;;8.13;100.00;100005.83;110490;1234;60042;-73
2023/04/26 07:55:28;;;;;;;2.10;1.50;;;;;;;8.18;100.00;100016.74;110383;1233;73250;-73
2023/04/26 07:57:56;;;;;;;3.40;2.20;;;;;;;8.21;100.00;100015.83;110475;1235;62763;-74
2023/04/26 08:00:25;;;;;;;2.80;2.10;;;;;;;8.19;100.00;100014.77;110481;1234;58388;-73
2023/04/26 08:02:54;;;;;;;4.80;2.70;;;;;;;8.21;100.00;100017.89;110379;1235;62910;-73
2023/04/26 08:05:23;;;;;;;6.70;6.10;;;;;;;8.15;100.00;100023.72;110465;1235;61761;-72
2023/04/26 08:07:52;;;;;;;3.40;1.60;;;;;;;8.08;100.00;100028.06;110204;1234;60389;-72
2023/04/26 08:10:21;;;;;;;3.20;2.90;;;;;;;8.00;100.00;100034.16;110395;1233;74593;-72
2023/04/26 08:12:49;;;;;;;4.90;3.90;;;;;;;7.97;100.00;100029.22;110314;1234;62374;-72
2023/04/26 08:15:19;;;;;;;2.80;1.80;;;;;;;8.01;100.00;100039.83;110333;1233;61916;-72
2023/04/26 08:17:51;;;;;;;2.60;2.10;;;;;;;7.98;100.00;100042.08;110432;1235;73744;-73
2023/04/26 08:20:20;;;;;;;2.20;1.70;;;;;;;7.97;100.00;100044.79;110306;1235;61359;-72
2023/04/26 08:22:53;;;;;;;2.70;2.10;;;;;;;7.91;100.00;100045.23;110188;1234;334936;-73
2023/04/26 08:25:23;;;;;;;2.40;2.10;;;;;;;7.92;100.00;100052.95;110176;1234;62503;-73
2023/04/26 08:27:52;;;;;;;3.80;2.20;;;;;;;7.92;100.00;100052.45;110130;1238;58220;-73
2023/04/26 08:30:21;;;;;;;3.30;2.10;;;;;;;7.97;100.00;100052.79;110338;1233;60308;-73
2023/04/26 08:32:50;;;;;;;3.00;2.30;;;;;;;8.01;100.00;100052.13;110357;1235;64199;-74
2023/04/26 08:35:20;;;;;;;4.10;2.60;;;;;;;8.04;100.00;100058.17;110463;1234;61785;-73
2023/04/26 08:37:49;;;;;;;4.10;2.30;;;;;;;8.07;100.00;100056.23;110473;1234;69346;-73
2023/04/26 08:40:26;;;;;;;2.90;2.20;;;;;;;8.08;100.00;100055.27;110462;1235;63785;-73
2023/04/26 08:42:55;;;;;;;6.30;2.50;;;;;;;8.14;100.00;100057.42;110344;1235;62671;-74
2023/04/26 08:45:24;;;;;;;2.90;2.20;;;;;;;8.16;100.00;100061.10;110432;1234;61751;-72
2023/04/26 08:47:57;;;;;;;3.90;2.60;;;;;;;8.21;100.00;100068.20;110452;1234;74695;-72
2023/04/26 08:50:28;;;;;;;3.50;2.10;;;;;;;8.20;100.00;100072.46;110287;1234;62168;-73
2023/04/26 08:52:57;;;;;;;3.90;2.40;;;;;;;8.16;100.00;100071.48;110329;1235;59549;-74
2023/04/26 08:55:27;;;;;;;5.00;2.30;;;;;;;8.18;100.00;100072.92;110284;1234;63259;-74
2023/04/26 08:57:56;;;;;;;3.40;2.50;;;;;;;8.19;100.00;100081.33;110395;1234;62094;-74
2023/04/26 09:00:26;;;;;;;3.30;2.20;;;;;;;8.13;100.00;100085.41;110388;1234;57857;-74
2023/04/26 09:02:55;;;;;;;3.50;1.80;;;;;;;8.22;100.00;100084.30;110398;1235;74295;-73
2023/04/26 09:05:25;;;;;;;2.80;2.40;;;;;;;8.24;100.00;100090.40;110155;1234;71575;-72
2023/04/26 09:08:01;;;;;;;3.80;2.40;;;;;;;8.23;100.00;100088.67;110139;1234;69878;-74
2023/04/26 09:10:31;;;;;;;3.50;2.20;;;;;;;8.22;100.00;100089.12;110012;1236;74332;-73
2023/04/26 09:13:00;;;;;;;4.10;2.10;;;;;;;8.16;100.00;100099.60;110195;1235;64050;-74
2023/04/26 09:15:28;;;;;;;2.80;2.20;;;;;;;8.23;100.00;100102.45;110187;1234;60736;-72
2023/04/26 09:18:22;;;;;;;2.70;2.20;;;;;;;8.34;100.00;100099.55;110240;1234;64286;-74
2023/04/26 09:21:04;;;;;;;2.50;1.80;;;;;;;8.48;100.00;100105.45;110115;1234;61519;-73
2023/04/26 09:23:34;;;;;;;2.70;2.00;;;;;;;8.50;100.00;100111.45;110205;1234;60023;-73
2023/04/26 09:26:20;;;;;;;2.40;1.60;;;;;;;8.49;100.00;100111.52;110121;1235;74181;-74
2023/04/26 09:28:49;;;;;;;2.00;1.70;;;;;;;8.41;100.00;100112.77;110110;1238;61042;-74
2023/04/26 09:31:47;;;;;;;2.20;1.70;;;;;;;8.29;100.00;100111.20;110228;1234;60395;-73
2023/04/26 09:34:17;;;;;;;2.00;1.70;;;;;;;8.24;100.00;100112.41;110180;1234;64373;-73
2023/04/26 09:36:56;;;;;;;2.00;1.80;;;;;;;8.18;100.00;100114.18;110363;1235;71448;-72
2023/04/26 09:39:36;;;;;;;2.80;2.00;;;;;;;8.16;100.00;100115.25;110430;1233;69851;-72
2023/04/26 09:42:06;;;;;;;2.50;1.50;;;;;;;8.15;100.00;100120.00;110293;1235;64206;-73
2023/04/26 09:44:35;;;;;;;2.00;1.60;;;;;;;8.07;100.00;100123.83;110389;1235;62943;-73
2023/04/26 09:47:08;;;;;;;3.80;1.80;;;;;;;8.12;100.00;100117.40;110375;1233;58277;-73
2023/04/26 09:49:51;;;;;;;3.10;1.80;;;;;;;8.20;100.00;100122.20;110277;1234;64267;-72
2023/04/26 09:52:20;;;;;;;4.10;1.80;;;;;;;8.31;100.00;100129.05;110177;1235;71595;-73
2023/04/26 09:54:53;;;;;;;2.10;1.70;;;;;;;8.34;100.00;100132.50;110290;1234;69960;-73
2023/04/26 09:57:22;;;;;;;3.30;1.60;;;;;;;8.38;100.00;100140.05;110135;1234;63556;-75
2023/04/26 09:59:55;;;;;;;2.50;1.20;;;;;;;8.38;100.00;100135.17;110104;1236;62967;-73
2023/04/26 10:02:27;;;;;;;2.50;1.70;;;;;;;8.44;100.00;100145.14;110111;1234;61672;-73
2023/04/26 10:04:58;;;;;;;3.10;1.90;;;;;;;8.44;100.00;100143.46;110325;1234;75070;-73
2023/04/26 10:07:29;;;;;;;3.40;2.00;;;;;;;8.47;100.00;100144.61;110455;1234;72873;-72
2023/04/26 10:09:58;;;;;;;3.40;1.90;;;;;;;8.58;100.00;100139.98;110409;1235;69834;-74
2023/04/26 10:12:28;;;;;;;2.40;1.20;;;;;;;8.57;100.00;100150.44;110388;1235;74943;-72
2023/04/26 10:14:57;;;;;;;2.00;1.50;;;;;;;8.62;100.00;100145.27;110291;1238;63341;-73
2023/04/26 10:17:26;;;;;;;2.90;1.60;;;;;;;8.64;100.00;100160.72;110301;1233;62309;-72
2023/04/26 10:19:58;;;;;;;2.10;1.60;;;;;;;8.55;100.00;100158.92;110321;1236;63678;-72
2023/04/26 10:22:32;;;;;;;3.60;1.90;;;;;;;8.54;100.00;100156.63;110302;1234;70393;-74
2023/04/26 10:25:01;;;;;;;2.80;1.80;;;;;;;8.48;100.00;100158.41;110427;1234;60373;-74
2023/04/26 10:27:42;;;;;;;2.10;1.30;;;;;;;8.60;100.00;100155.49;110414;1235;73107;-73
2023/04/26 10:30:19;;;;;;;3.80;1.80;;;;;;;8.57;100.00;100158.98;110406;1235;63290;-74
2023/04/26 10:32:56;;;;;;;3.30;1.70;;;;;;;8.64;100.00;100153.62;110415;1234;60802;-73
2023/04/26 10:35:29;;;;;;;3.60;1.50;;;;;;;8.71;100.00;100154.79;110330;1233;64723;-76
2023/04/26 10:37:58;;;;;;;4.20;1.60;;;;;;;8.75;100.00;100157.66;110249;1233;61726;-75
2023/04/26 10:40:38;;;;;;;1.50;1.30;;;;;;;8.79;100.00;100153.20;110419;1233;58990;-73
2023/04/26 10:43:13;;;;;;;3.50;1.80;;;;;;;8.95;100.00;100144.71;110373;1235;74561;-76
2023/04/26 10:45:45;;;;;;;2.90;1.30;;;;;;;9.03;100.00;100150.70;110400;1235;58336;-73
2023/04/26 10:48:26;;;;;;;4.00;1.70;;;;;;;9.05;100.00;100154.94;110285;1233;60326;-74
2023/04/26 10:51:00;;;;;;;2.60;1.80;;;;;;;9.09;100.00;100158.81;110291;1234;75213;-75
2023/04/26 10:53:45;;;;;;;3.00;2.10;;;;;;;9.11;100.00;100157.27;110298;1234;71742;-73
2023/04/26 10:56:26;;;;;;;3.10;2.00;;;;;;;9.17;100.00;100166.02;110170;1234;59194;-73
2023/04/26 10:59:09;;;;;;;2.70;1.60;;;;;;;9.22;100.00;100172.07;110171;1234;63239;-74
2023/04/26 11:01:41;;;;;;;2.90;1.60;;;;;;;9.22;100.00;100174.27;110028;1235;62093;-75
2023/04/26 11:04:11;;;;;;;2.70;1.20;;;;;;;9.23;100.00;100178.93;110286;1233;60718;-74
2023/04/26 11:06:54;;;;;;;1.60;1.30;;;;;;;9.19;100.00;100175.89;110180;1234;75214;-73
2023/04/26 11:09:47;;;;;;;1.90;1.50;;;;;;;9.25;100.00;100176.52;110181;1235;62581;-74
2023/04/26 11:12:16;;;;;;;2.90;1.70;;;;;;;9.30;100.00;100185.13;110182;1234;69157;-75
2023/04/26 11:14:45;;;;;;;2.70;1.60;;;;;;;9.32;100.00;100186.27;110271;1233;72898;-74
2023/04/26 11:17:13;;;;;;;3.90;1.80;;;;;;;9.15;100.00;100179.70;110182;1238;62762;-74
2023/04/26 11:19:46;;;;;;;1.80;1.40;;;;;;;9.26;100.00;100185.11;110449;1235;58273;-74
2023/04/26 11:22:15;;;;;;;2.00;1.50;;;;;;;9.48;100.00;100193.88;110336;1233;73609;-74
2023/04/26 11:24:43;;;;;;;2.80;1.40;;;;;;;9.44;100.00;100193.29;110460;1234;72580;-73
2023/04/26 11:27:12;;;;;;;3.10;1.40;;;;;;;9.39;100.00;100196.63;110442;1234;60789;-74
2023/04/26 11:29:41;;;;;;;2.50;1.20;;;;;;;9.40;100.00;100194.33;110421;1235;63259;-74